createdAt,value
2023-04-29T00:02:01.377Z,86.20
2023-04-29T00:04:04.916Z,86.20
2023-04-29T00:06:08.976Z,86.40
2023-04-29T00:08:12.430Z,87.00
2023-04-29T00:10:16.081Z,86.60
2023-04-29T00:12:19.580Z,86.10
2023-04-29T00:14:24.740Z,86.00
2023-04-29T00:16:31.582Z,85.90
2023-04-29T00:18:35.040Z,86.00
2023-04-29T00:20:39.092Z,85.80
2023-04-29T00:22:42.685Z,86.80
2023-04-29T00:24:46.154Z,87.70
2023-04-29T00:26:49.965Z,87.50
2023-04-29T00:28:53.372Z,86.60
2023-04-29T00:30:58.314Z,86.40
2023-04-29T00:33:01.917Z,86.40
2023-04-29T00:35:06.054Z,87.10
2023-04-29T00:37:09.723Z,86.70
2023-04-29T00:39:15.246Z,86.30
2023-04-29T00:41:18.940Z,86.80
2023-04-29T00:43:22.641Z,86.80
2023-04-29T00:45:27.881Z,88.20
2023-04-29T00:47:32.915Z,87.90
2023-04-29T00:49:36.647Z,88.00
2023-04-29T00:51:41.854Z,87.70
2023-04-29T00:53:46.188Z,88.60
2023-04-29T00:55:52.993Z,88.60
2023-04-29T00:57:56.519Z,88.40
2023-04-29T01:00:00.283Z,88.10
2023-04-29T01:02:05.156Z,87.40
2023-04-29T01:04:11.018Z,87.40
2023-04-29T01:06:25.109Z,88.10
2023-04-29T01:08:42.692Z,88.80
2023-04-29T01:10:54.349Z,89.20
2023-04-29T01:13:05.083Z,87.80
2023-04-29T01:15:18.164Z,87.70
2023-04-29T01:17:26.921Z,88.30
2023-04-29T01:19:41.880Z,88.30
2023-04-29T01:21:49.904Z,89.00
2023-04-29T01:23:56.570Z,88.80
2023-04-29T01:26:00.476Z,88.60
2023-04-29T01:28:11.593Z,88.60
2023-04-29T01:30:23.161Z,88.10
2023-04-29T01:32:38.780Z,88.20
2023-04-29T01:34:50.867Z,88.20
2023-04-29T01:37:01.999Z,88.50
2023-04-29T01:39:13.686Z,89.70
2023-04-29T01:41:20.185Z,90.00
2023-04-29T01:43:26.216Z,90.40
2023-04-29T01:45:30.722Z,90.20
2023-04-29T01:47:34.846Z,90.20
2023-04-29T01:49:38.559Z,90.00
2023-04-29T01:51:42.025Z,90.10
2023-04-29T01:53:45.447Z,90.30
2023-04-29T01:55:50.415Z,90.30
2023-04-29T01:57:53.669Z,90.10
2023-04-29T01:59:57.453Z,90.00
2023-04-29T02:02:00.861Z,89.80
2023-04-29T02:04:04.655Z,90.00
2023-04-29T02:06:08.769Z,89.30
2023-04-29T02:08:13.058Z,88.90
2023-04-29T02:10:16.679Z,89.40
2023-04-29T02:12:22.173Z,89.50
2023-04-29T02:14:25.606Z,90.20
2023-04-29T02:16:29.190Z,90.20
2023-04-29T02:18:32.784Z,90.00
2023-04-29T02:20:36.377Z,89.10
2023-04-29T02:22:40.078Z,88.90
2023-04-29T02:24:43.468Z,89.00
2023-04-29T02:26:47.207Z,89.50
2023-04-29T02:28:52.594Z,88.60
2023-04-29T02:30:56.075Z,89.10
2023-04-29T02:32:59.427Z,89.10
2023-04-29T02:35:02.994Z,89.10
2023-04-29T02:37:06.573Z,90.00
2023-04-29T02:39:10.105Z,89.80
2023-04-29T02:41:18.304Z,90.00
2023-04-29T02:43:21.770Z,94.60
2023-04-29T02:45:26.811Z,93.30
2023-04-29T02:47:30.592Z,97.20
2023-04-29T02:49:34.016Z,98.20
2023-04-29T02:51:37.506Z,93.00
2023-04-29T02:53:41.432Z,92.60
2023-04-29T02:55:44.886Z,92.50
2023-04-29T02:57:48.636Z,92.70
2023-04-29T02:59:52.718Z,92.80
2023-04-29T03:01:58.460Z,92.70
2023-04-29T03:04:02.192Z,92.70
2023-04-29T03:06:05.779Z,92.80
2023-04-29T03:08:10.478Z,93.20
2023-04-29T03:10:14.113Z,96.60
2023-04-29T03:12:17.863Z,97.70
2023-04-29T03:14:21.302Z,99.20
2023-04-29T03:16:25.661Z,99.00
2023-04-29T03:18:30.632Z,99.10
2023-04-29T03:20:34.093Z,99.80
2023-04-29T03:22:37.506Z,99.90
2023-04-29T03:24:40.905Z,99.90
2023-04-29T03:26:44.572Z,99.90
2023-04-29T03:28:48.164Z,99.90
2023-04-29T03:30:51.811Z,99.90
2023-04-29T03:32:55.184Z,99.90
2023-04-29T03:35:00.286Z,98.90
2023-04-29T03:37:03.780Z,95.30
2023-04-29T03:39:07.467Z,94.60
2023-04-29T03:41:11.000Z,94.20
2023-04-29T03:43:14.710Z,94.30
2023-04-29T03:45:18.373Z,94.60
2023-04-29T03:47:21.645Z,94.30
2023-04-29T03:49:25.698Z,94.10
2023-04-29T03:51:31.116Z,94.30
2023-04-29T03:53:34.914Z,94.20
2023-04-29T03:55:38.985Z,94.00
2023-04-29T03:57:42.722Z,93.70
2023-04-29T03:59:50.459Z,93.70
2023-04-29T04:01:54.599Z,93.70
2023-04-29T04:03:58.261Z,93.90
2023-04-29T04:06:02.371Z,93.90
2023-04-29T04:08:07.358Z,93.60
2023-04-29T04:10:11.476Z,93.60
2023-04-29T04:12:14.808Z,93.90
2023-04-29T04:14:19.078Z,93.90
2023-04-29T04:16:22.443Z,93.90
2023-04-29T04:18:25.988Z,93.90
2023-04-29T04:20:29.358Z,93.80
2023-04-29T04:22:32.777Z,93.70
2023-04-29T04:24:37.631Z,93.60
2023-04-29T04:26:41.709Z,93.60
2023-04-29T04:28:45.104Z,93.50
2023-04-29T04:30:48.986Z,93.50
2023-04-29T04:32:52.420Z,93.80
2023-04-29T04:34:55.909Z,94.00
2023-04-29T04:36:59.386Z,93.90
2023-04-29T04:39:02.798Z,94.00
2023-04-29T04:41:09.423Z,93.90
2023-04-29T04:43:12.816Z,94.10
2023-04-29T04:45:16.925Z,94.20
2023-04-29T04:47:20.244Z,94.40
2023-04-29T04:49:26.210Z,94.10
2023-04-29T04:51:30.176Z,94.00
2023-04-29T04:53:33.511Z,93.70
2023-04-29T04:55:37.269Z,93.40
2023-04-29T04:57:41.993Z,93.40
2023-04-29T04:59:45.367Z,93.10
2023-04-29T05:01:49.150Z,92.60
2023-04-29T05:03:52.687Z,92.50
2023-04-29T05:05:56.188Z,93.20
2023-04-29T05:07:59.601Z,93.70
2023-04-29T05:10:03.266Z,93.30
2023-04-29T05:12:07.166Z,92.70
2023-04-29T05:14:12.033Z,92.30
2023-04-29T05:16:17.536Z,91.50
2023-04-29T05:18:21.015Z,91.20
2023-04-29T05:20:24.427Z,91.10
2023-04-29T05:22:27.820Z,90.30
2023-04-29T05:24:31.213Z,89.40
2023-04-29T05:26:34.614Z,87.60
2023-04-29T05:28:38.736Z,86.70
2023-04-29T05:30:43.907Z,87.40
2023-04-29T05:32:47.603Z,87.70
2023-04-29T05:34:51.385Z,87.10
2023-04-29T05:36:54.912Z,85.50
2023-04-29T05:38:58.476Z,84.40
2023-04-29T05:41:02.765Z,84.30
2023-04-29T05:43:06.166Z,84.80
2023-04-29T05:45:10.983Z,84.40
2023-04-29T05:47:16.521Z,85.60
2023-04-29T05:49:19.944Z,84.60
2023-04-29T05:51:23.454Z,84.60
2023-04-29T05:53:26.998Z,84.20
2023-04-29T05:55:30.862Z,82.90
2023-04-29T05:57:34.174Z,83.20
2023-04-29T05:59:37.596Z,83.50
2023-04-29T06:01:41.205Z,82.10
2023-04-29T06:03:46.653Z,82.70
2023-04-29T06:05:51.027Z,82.20
2023-04-29T06:07:54.741Z,81.70
2023-04-29T06:09:58.318Z,81.00
2023-04-29T06:12:01.673Z,79.50
2023-04-29T06:14:05.100Z,78.40
2023-04-29T06:16:09.255Z,79.20
2023-04-29T06:18:12.708Z,78.70
2023-04-29T06:20:21.393Z,77.30
2023-04-29T06:22:24.944Z,74.90
2023-04-29T06:24:28.637Z,73.70
2023-04-29T06:26:32.295Z,72.60
2023-04-29T06:28:35.892Z,67.40
2023-04-29T06:30:39.480Z,67.90
2023-04-29T06:32:42.966Z,50.10
2023-04-29T06:34:47.176Z,50.60
2023-04-29T06:36:51.918Z,52.30
2023-04-29T06:38:55.495Z,54.20
2023-04-29T06:41:00.990Z,52.30
2023-04-29T06:43:04.614Z,56.90
2023-04-29T06:45:09.178Z,55.30
2023-04-29T06:47:12.639Z,52.50
2023-04-29T06:49:16.321Z,49.40
2023-04-29T06:51:19.710Z,49.80
2023-04-29T06:53:27.769Z,50.70
2023-04-29T06:55:31.519Z,50.40
2023-04-29T06:57:34.843Z,46.20
2023-04-29T06:59:38.582Z,47.10
2023-04-29T07:01:44.464Z,44.80
2023-04-29T07:03:49.194Z,47.10
2023-04-29T07:05:52.773Z,50.10
2023-04-29T07:07:56.182Z,48.80
2023-04-29T07:10:00.933Z,48.70
2023-04-29T07:12:04.969Z,43.30
2023-04-29T07:14:08.786Z,45.20
2023-04-29T07:16:18.227Z,46.90
2023-04-29T07:18:21.801Z,47.40
2023-04-29T07:20:25.981Z,46.50
2023-04-29T07:22:29.384Z,47.90
2023-04-29T07:24:32.764Z,45.30
2023-04-29T07:26:37.868Z,47.00
2023-04-29T07:28:42.083Z,47.90
2023-04-29T07:30:45.783Z,46.20
2023-04-29T07:32:49.411Z,43.50
2023-04-29T07:34:53.209Z,38.80
2023-04-29T07:36:57.382Z,40.90
2023-04-29T07:39:00.812Z,40.30
2023-04-29T07:41:04.677Z,40.10
2023-04-29T07:43:09.544Z,39.00
2023-04-29T07:45:14.112Z,41.00
2023-04-29T07:47:17.683Z,38.60
2023-04-29T07:49:21.109Z,36.50
2023-04-29T07:51:24.566Z,36.10
2023-04-29T07:53:28.071Z,36.50
2023-04-29T07:55:31.959Z,30.60
2023-04-29T07:57:35.466Z,31.70
2023-04-29T07:59:40.401Z,32.10
2023-04-29T08:01:44.100Z,32.10
2023-04-29T08:03:47.934Z,29.40
2023-04-29T08:05:53.786Z,29.20
2023-04-29T08:07:57.471Z,28.20
2023-04-29T08:10:01.239Z,28.30
2023-04-29T08:12:04.672Z,25.80
2023-04-29T08:14:08.885Z,27.90
2023-04-29T08:16:13.896Z,28.10
2023-04-29T08:18:17.613Z,28.40
2023-04-29T08:20:21.187Z,31.50
2023-04-29T08:22:24.582Z,31.40
2023-04-29T08:24:29.362Z,32.70
2023-04-29T08:26:33.073Z,37.40
2023-04-29T08:28:36.545Z,39.00
2023-04-29T08:30:42.134Z,39.90
2023-04-29T08:32:47.155Z,41.10
2023-04-29T08:34:50.809Z,38.80
2023-04-29T08:36:54.586Z,40.40
2023-04-29T08:38:58.148Z,41.50
2023-04-29T08:41:02.454Z,42.70
2023-04-29T08:43:06.557Z,42.70
2023-04-29T08:45:10.958Z,43.00
2023-04-29T08:47:14.787Z,43.60
2023-04-29T08:49:19.926Z,41.90
2023-04-29T08:51:23.526Z,42.90
2023-04-29T08:53:26.946Z,41.40
2023-04-29T08:55:30.318Z,40.20
2023-04-29T08:57:39.821Z,39.60
2023-04-29T08:59:43.593Z,40.70
2023-04-29T09:01:51.022Z,41.20
2023-04-29T09:04:06.032Z,44.50
2023-04-29T09:06:12.449Z,46.20
2023-04-29T09:08:17.194Z,41.70
2023-04-29T09:10:21.264Z,41.00
2023-04-29T09:12:24.979Z,38.50
2023-04-29T09:14:29.815Z,38.60
2023-04-29T09:16:33.234Z,40.50
2023-04-29T09:18:48.199Z,40.70
2023-04-29T09:20:51.573Z,37.50
2023-04-29T09:22:58.200Z,40.50
2023-04-29T09:25:14.011Z,41.90
2023-04-29T09:27:29.346Z,43.90
2023-04-29T09:29:34.158Z,40.30
2023-04-29T09:31:40.282Z,36.10
2023-04-29T09:33:54.575Z,37.70
2023-04-29T09:35:58.137Z,36.80
2023-04-29T09:38:13.599Z,36.70
2023-04-29T09:40:30.509Z,36.00
2023-04-29T09:42:44.324Z,34.10
2023-04-29T09:44:48.024Z,35.30
2023-04-29T09:46:57.421Z,36.40
2023-04-29T09:49:00.861Z,35.40
2023-04-29T09:51:04.632Z,36.10
2023-04-29T09:53:09.377Z,39.60
2023-04-29T09:55:16.141Z,38.80
2023-04-29T09:57:20.321Z,30.50
2023-04-29T09:59:25.090Z,29.20
2023-04-29T10:01:29.725Z,31.30
2023-04-29T10:03:41.274Z,33.80
2023-04-29T10:05:47.715Z,31.90
2023-04-29T10:07:52.518Z,32.30
2023-04-29T10:09:57.993Z,33.50
2023-04-29T10:12:03.780Z,36.50
2023-04-29T10:14:12.283Z,37.20
2023-04-29T10:16:29.448Z,36.00
2023-04-29T10:18:38.672Z,37.70
2023-04-29T10:20:47.454Z,37.50
2023-04-29T10:22:52.293Z,35.70
2023-04-29T10:24:59.290Z,31.00
2023-04-29T10:27:06.861Z,42.20
2023-04-29T10:29:12.709Z,31.10
2023-04-29T10:31:18.427Z,32.10
2023-04-29T10:33:23.487Z,29.80
2023-04-29T10:35:27.123Z,29.00
2023-04-29T10:37:31.340Z,30.90
2023-04-29T10:39:41.846Z,29.60
2023-04-29T10:41:47.402Z,29.60
2023-04-29T10:43:55.650Z,30.30
2023-04-29T10:46:20.726Z,32.50
2023-04-29T10:48:25.674Z,39.00
2023-04-29T10:50:30.400Z,40.40
2023-04-29T10:52:53.070Z,37.90
2023-04-29T10:55:07.648Z,40.50
2023-04-29T10:57:30.594Z,57.80
2023-04-29T10:59:49.260Z,49.70
2023-04-29T11:02:02.109Z,53.00
2023-04-29T11:04:11.282Z,56.00
2023-04-29T11:06:18.599Z,59.50
2023-04-29T11:08:26.771Z,58.40
2023-04-29T11:10:38.916Z,64.30
2023-04-29T11:12:42.451Z,69.70
2023-04-29T11:14:54.632Z,78.10
2023-04-29T11:17:02.097Z,70.80
2023-04-29T11:19:12.482Z,60.60
2023-04-29T11:21:19.005Z,59.80
2023-04-29T11:23:29.146Z,62.10
2023-04-29T11:25:32.974Z,57.70
2023-04-29T11:27:38.939Z,59.70
2023-04-29T11:29:43.280Z,53.20
2023-04-29T11:31:48.518Z,51.60
2023-04-29T11:33:51.926Z,51.80
2023-04-29T11:35:56.034Z,51.30
2023-04-29T11:38:02.213Z,54.70
2023-04-29T11:40:08.199Z,56.00
2023-04-29T11:42:11.921Z,60.40
2023-04-29T11:44:15.571Z,50.10
2023-04-29T11:46:19.236Z,53.00
2023-04-29T11:48:25.020Z,51.60
2023-04-29T11:50:28.560Z,53.20
2023-04-29T11:52:32.260Z,55.50
2023-04-29T11:54:35.931Z,52.00
2023-04-29T11:56:39.693Z,55.50
2023-04-29T11:58:44.993Z,58.30
2023-04-29T12:00:49.922Z,58.70
2023-04-29T12:02:53.578Z,55.10
2023-04-29T12:04:59.077Z,53.80
2023-04-29T12:07:05.373Z,56.30
2023-04-29T12:09:08.949Z,48.90
2023-04-29T12:11:12.452Z,53.20
2023-04-29T12:13:16.422Z,56.90
2023-04-29T12:15:20.214Z,51.30
2023-04-29T12:17:23.830Z,54.20
2023-04-29T12:19:27.348Z,53.20
2023-04-29T12:21:33.048Z,53.30
2023-04-29T12:23:38.201Z,55.30
2023-04-29T12:25:42.619Z,54.80
2023-04-29T12:29:54.438Z,62.20
2023-04-29T12:31:58.555Z,59.60
2023-04-29T12:36:17.950Z,63.90
2023-04-29T12:38:28.348Z,66.10
2023-04-29T12:40:33.091Z,66.90
2023-04-29T12:42:36.537Z,66.70
2023-04-29T12:44:40.843Z,66.60
2023-04-29T12:46:44.313Z,62.00
2023-04-29T12:48:48.980Z,58.30
2023-04-29T12:50:52.543Z,60.20
2023-04-29T12:52:56.612Z,61.20
2023-04-29T12:55:01.752Z,62.80
2023-04-29T12:57:05.967Z,61.80
2023-04-29T12:59:12.013Z,63.40
2023-04-29T13:01:18.395Z,65.30
2023-04-29T13:03:22.748Z,63.70
2023-04-29T13:05:26.374Z,61.70
2023-04-29T13:07:30.132Z,64.60
2023-04-29T13:09:38.337Z,66.90
2023-04-29T13:11:43.875Z,69.40
2023-04-29T13:13:47.855Z,70.10
2023-04-29T13:15:51.574Z,67.80
2023-04-29T13:17:55.853Z,66.40
2023-04-29T13:20:00.363Z,68.10
2023-04-29T13:22:04.119Z,73.50
2023-04-29T13:24:09.176Z,76.50
2023-04-29T13:26:13.872Z,71.80
2023-04-29T13:28:19.011Z,75.40
2023-04-29T13:30:22.445Z,74.30
2023-04-29T13:32:41.882Z,75.60
2023-04-29T13:34:48.527Z,77.90
2023-04-29T13:36:52.020Z,80.60
2023-04-29T13:38:55.881Z,79.80
2023-04-29T13:40:59.389Z,76.00
2023-04-29T13:43:07.132Z,69.70
2023-04-29T13:45:16.284Z,63.50
2023-04-29T13:47:25.614Z,65.60
2023-04-29T13:49:58.634Z,64.90
2023-04-29T13:52:37.705Z,66.10
2023-04-29T13:59:08.463Z,64.90
2023-04-29T14:03:03.872Z,66.70
2023-04-29T14:05:08.158Z,66.80
2023-04-29T14:07:11.742Z,69.00
2023-04-29T14:09:15.174Z,68.10
2023-04-29T14:11:19.702Z,66.40
2023-04-29T14:13:23.093Z,66.80
2023-04-29T14:15:26.581Z,64.70
2023-04-29T14:17:31.709Z,64.90
2023-04-29T14:19:35.166Z,64.10
2023-04-29T14:21:44.154Z,65.50
2023-04-29T14:23:47.700Z,66.00
2023-04-29T14:25:51.493Z,66.60
2023-04-29T14:27:56.976Z,68.20
2023-04-29T14:30:00.658Z,71.20
2023-04-29T14:32:04.242Z,52.90
2023-04-29T14:34:09.668Z,53.60
2023-04-29T14:36:13.310Z,54.90
2023-04-29T14:38:16.798Z,56.90
2023-04-29T14:40:20.478Z,59.90
2023-04-29T14:42:23.947Z,64.60
2023-04-29T14:44:27.646Z,64.70
2023-04-29T14:46:32.782Z,70.10
2023-04-29T14:48:36.360Z,75.00
2023-04-29T14:50:41.204Z,75.90
2023-04-29T14:52:44.619Z,74.20
2023-04-29T14:54:48.285Z,75.20
2023-04-29T14:56:51.723Z,67.80
2023-04-29T14:58:55.334Z,70.70
2023-04-29T15:00:59.031Z,69.20
2023-04-29T15:03:04.019Z,66.10
2023-04-29T15:05:08.283Z,68.30
2023-04-29T15:07:13.660Z,70.30
2023-04-29T15:09:17.571Z,68.80
2023-04-29T15:11:21.760Z,68.80
2023-04-29T15:13:25.434Z,67.30
2023-04-29T15:15:29.022Z,66.30
2023-04-29T15:17:32.468Z,65.60
2023-04-29T15:19:36.122Z,65.60
2023-04-29T15:21:39.672Z,65.60
2023-04-29T15:23:44.774Z,66.10
2023-04-29T15:25:48.187Z,65.50
2023-04-29T15:27:51.769Z,63.50
2023-04-29T15:29:57.124Z,66.00
2023-04-29T15:32:00.824Z,64.80
2023-04-29T15:34:04.394Z,63.60
2023-04-29T15:36:09.001Z,65.20
2023-04-29T15:38:13.057Z,67.00
2023-04-29T15:40:18.297Z,67.40
2023-04-29T15:42:21.629Z,68.10
2023-04-29T15:44:25.174Z,67.10
2023-04-29T15:46:28.985Z,67.00
2023-04-29T15:48:32.414Z,67.50
2023-04-29T15:50:35.720Z,65.70
2023-04-29T15:52:39.049Z,65.30
2023-04-29T15:54:42.409Z,64.80
2023-04-29T15:56:47.387Z,69.80
2023-04-29T15:58:50.977Z,67.40
2023-04-29T16:00:54.454Z,66.80
2023-04-29T16:02:58.000Z,67.20
2023-04-29T16:05:01.454Z,68.90
2023-04-29T16:07:05.639Z,69.00
2023-04-29T16:09:09.547Z,68.20
2023-04-29T16:11:13.018Z,68.80
2023-04-29T16:13:17.867Z,68.00
2023-04-29T16:15:21.650Z,67.30
2023-04-29T16:17:25.199Z,66.30
2023-04-29T16:19:28.895Z,67.20
2023-04-29T16:21:33.212Z,64.90
2023-04-29T16:23:36.678Z,63.50
2023-04-29T16:25:43.092Z,65.20
2023-04-29T16:27:47.022Z,67.80
2023-04-29T16:29:53.412Z,66.60
2023-04-29T16:31:58.206Z,69.50
2023-04-29T16:34:01.644Z,72.00
2023-04-29T16:36:05.364Z,72.30
2023-04-29T16:38:09.041Z,71.80
2023-04-29T16:40:13.564Z,72.00
2023-04-29T16:42:17.569Z,70.40
2023-04-29T16:44:21.447Z,70.90
2023-04-29T16:46:26.320Z,72.40
2023-04-29T16:48:29.809Z,74.40
2023-04-29T16:50:36.230Z,74.40
2023-04-29T16:52:39.712Z,75.00
2023-04-29T16:54:43.213Z,74.70
2023-04-29T16:56:47.963Z,67.40
2023-04-29T16:58:53.406Z,73.00
2023-04-29T17:00:56.863Z,72.60
2023-04-29T17:03:01.686Z,68.40
2023-04-29T17:05:05.547Z,64.70
2023-04-29T17:07:09.577Z,69.10
2023-04-29T17:09:13.306Z,69.10
2023-04-29T17:11:18.438Z,69.70
2023-04-29T17:13:21.752Z,67.70
2023-04-29T17:15:25.241Z,68.90
2023-04-29T17:17:28.714Z,70.30
2023-04-29T17:19:33.584Z,70.20
2023-04-29T17:21:36.946Z,70.30
2023-04-29T17:23:40.978Z,71.00
2023-04-29T17:25:44.488Z,70.40
2023-04-29T17:27:47.944Z,70.80
2023-04-29T17:29:51.433Z,71.70
2023-04-29T17:31:59.796Z,73.20
2023-04-29T17:34:18.287Z,73.10
2023-04-29T17:36:23.404Z,73.80
2023-04-29T17:38:26.856Z,74.50
2023-04-29T17:40:30.600Z,74.60
2023-04-29T17:42:34.153Z,75.40
2023-04-29T17:44:38.249Z,75.20
2023-04-29T17:46:42.775Z,75.10
2023-04-29T17:48:46.041Z,76.00
2023-04-29T17:50:49.473Z,76.90
2023-04-29T17:52:54.237Z,76.60
2023-04-29T17:54:57.781Z,75.70
2023-04-29T17:57:03.378Z,76.70
2023-04-29T17:59:07.088Z,76.50
2023-04-29T18:01:10.586Z,76.10
2023-04-29T18:03:14.137Z,75.80
2023-04-29T18:05:18.039Z,74.90
2023-04-29T18:07:21.472Z,76.10
2023-04-29T18:09:26.604Z,76.30
2023-04-29T18:11:30.547Z,76.10
2023-04-29T18:13:34.002Z,76.20
2023-04-29T18:15:37.967Z,77.10
2023-04-29T18:19:48.895Z,78.50
2023-04-29T18:21:52.216Z,76.80
2023-04-29T18:23:56.097Z,79.30
2023-04-29T18:26:01.320Z,77.30
2023-04-29T18:28:19.253Z,77.30
2023-04-29T18:30:28.193Z,77.30
2023-04-29T18:32:31.556Z,78.30
2023-04-29T18:34:35.054Z,79.10
2023-04-29T18:36:38.812Z,80.20
2023-04-29T18:38:42.283Z,81.00
2023-04-29T18:40:45.653Z,81.20
2023-04-29T18:42:50.649Z,81.40
2023-04-29T18:44:53.955Z,81.40
2023-04-29T18:46:57.456Z,79.70
2023-04-29T18:49:01.063Z,80.20
2023-04-29T18:51:06.070Z,80.60
2023-04-29T18:53:10.217Z,78.80
2023-04-29T18:55:14.401Z,78.60
2023-04-29T18:57:17.763Z,78.10
2023-04-29T18:59:22.822Z,78.10
2023-04-29T19:01:26.297Z,79.10
2023-04-29T19:03:29.786Z,78.50
2023-04-29T19:05:33.868Z,78.80
2023-04-29T19:07:37.245Z,79.60
2023-04-29T19:09:40.912Z,80.30
2023-04-29T19:11:44.389Z,82.60
2023-04-29T19:13:47.704Z,82.50
2023-04-29T19:15:55.029Z,82.80
2023-04-29T19:17:58.567Z,83.10
2023-04-29T19:20:01.969Z,83.80
2023-04-29T19:22:07.382Z,83.90
2023-04-29T19:24:10.982Z,84.90
2023-04-29T19:26:14.331Z,85.30
2023-04-29T19:28:17.843Z,84.80
2023-04-29T19:30:21.543Z,84.50
2023-04-29T19:32:28.843Z,84.70
2023-04-29T19:34:33.499Z,85.20
2023-04-29T19:36:37.791Z,84.50
2023-04-29T19:38:41.710Z,84.70
2023-04-29T19:40:45.007Z,84.50
2023-04-29T19:42:48.628Z,83.80
2023-04-29T19:44:52.000Z,83.10
2023-04-29T19:46:55.566Z,83.50
2023-04-29T19:49:00.605Z,84.70
2023-04-29T19:51:07.225Z,83.90
2023-04-29T19:53:11.250Z,83.20
2023-04-29T19:55:14.806Z,83.00
2023-04-29T19:57:18.211Z,83.60
2023-04-29T19:59:21.792Z,83.30
2023-04-29T20:01:25.536Z,83.70
2023-04-29T20:03:29.060Z,83.80
2023-04-29T20:05:34.067Z,84.80
2023-04-29T20:07:37.598Z,85.20
2023-04-29T20:09:41.679Z,85.80
2023-04-29T20:11:45.119Z,85.40
2023-04-29T20:13:48.555Z,86.20
2023-04-29T20:15:51.981Z,85.40
2023-04-29T20:17:55.695Z,84.00
2023-04-29T20:19:59.308Z,83.50
2023-04-29T20:22:04.194Z,84.30
2023-04-29T20:24:08.358Z,83.80
2023-04-29T20:26:11.800Z,83.40
2023-04-29T20:28:15.219Z,82.40
2023-04-29T20:30:18.533Z,83.30
2023-04-29T20:32:22.054Z,83.20
2023-04-29T20:34:25.613Z,83.60
2023-04-29T20:36:30.386Z,83.50
2023-04-29T20:38:36.345Z,82.60
2023-04-29T20:40:40.384Z,82.50
2023-04-29T20:42:43.741Z,82.20
2023-04-29T20:44:47.408Z,82.80
2023-04-29T20:46:53.122Z,82.50
2023-04-29T20:48:56.595Z,82.30
2023-04-29T20:51:03.413Z,82.40
2023-04-29T20:53:07.290Z,82.10
2023-04-29T20:55:12.596Z,82.40
2023-04-29T20:57:16.035Z,82.10
2023-04-29T20:59:19.684Z,82.60
2023-04-29T21:01:23.268Z,83.20
2023-04-29T21:03:26.783Z,84.00
2023-04-29T21:05:30.169Z,84.70
2023-04-29T21:07:33.503Z,85.40
2023-04-29T21:09:37.106Z,85.90
2023-04-29T21:11:42.014Z,86.00
2023-04-29T21:13:49.967Z,86.40
2023-04-29T21:15:53.422Z,86.00
2023-04-29T21:17:57.297Z,86.30
2023-04-29T21:20:01.048Z,86.00
2023-04-29T21:22:04.375Z,86.60
2023-04-29T21:24:07.735Z,86.20
2023-04-29T21:26:11.417Z,86.20
2023-04-29T21:28:17.178Z,86.10
2023-04-29T21:30:20.802Z,85.70
2023-04-29T21:32:24.665Z,85.60
2023-04-29T21:34:27.940Z,85.60
2023-04-29T21:36:32.160Z,85.60
2023-04-29T21:38:35.657Z,85.80
2023-04-29T21:40:42.732Z,85.10
2023-04-29T21:42:46.973Z,84.80
2023-04-29T21:44:52.125Z,85.20
2023-04-29T21:46:55.644Z,84.80
2023-04-29T21:48:59.840Z,84.40
2023-04-29T21:51:05.286Z,84.50
2023-04-29T21:53:08.832Z,85.40
2023-04-29T21:55:12.323Z,85.40
2023-04-29T21:57:15.761Z,85.50
2023-04-29T21:59:19.216Z,84.80
2023-04-29T22:01:48.371Z,85.70
2023-04-29T22:03:52.284Z,85.80
2023-04-29T22:05:56.203Z,86.10
2023-04-29T22:08:01.134Z,86.90
2023-04-29T22:10:04.591Z,87.20
2023-04-29T22:12:08.022Z,87.30
2023-04-29T22:14:11.569Z,86.80
2023-04-29T22:16:14.897Z,86.90
2023-04-29T22:18:20.094Z,87.50
2023-04-29T22:20:23.594Z,87.50
2023-04-29T22:22:26.880Z,86.90
2023-04-29T22:24:30.434Z,88.70
2023-04-29T22:26:33.817Z,88.10
2023-04-29T22:28:37.324Z,87.90
2023-04-29T22:30:42.924Z,86.90
2023-04-29T22:32:46.652Z,87.80
2023-04-29T22:34:52.046Z,88.80
2023-04-29T22:36:55.439Z,88.20
2023-04-29T22:38:58.961Z,86.70
2023-04-29T22:41:02.911Z,86.80
2023-04-29T22:43:06.265Z,86.90
2023-04-29T22:45:11.366Z,86.50
2023-04-29T22:47:14.720Z,87.00
2023-04-29T22:49:18.344Z,86.40
2023-04-29T22:51:23.186Z,88.80
2023-04-29T22:53:27.205Z,89.50
2023-04-29T22:55:30.606Z,90.30
2023-04-29T22:57:33.924Z,90.10
2023-04-29T22:59:37.215Z,89.80
2023-04-29T23:01:40.562Z,89.40
2023-04-29T23:03:43.952Z,89.30
2023-04-29T23:05:47.363Z,89.40
2023-04-29T23:07:52.111Z,89.30
2023-04-29T23:09:55.624Z,89.90
2023-04-29T23:11:59.438Z,89.60
2023-04-29T23:14:03.292Z,88.50
2023-04-29T23:16:09.952Z,88.10
2023-04-29T23:18:14.306Z,88.40
2023-04-29T23:20:17.843Z,88.20
2023-04-29T23:22:21.368Z,87.90
2023-04-29T23:24:26.230Z,88.40
2023-04-29T23:26:29.667Z,89.10
2023-04-29T23:28:32.947Z,88.90
2023-04-29T23:30:36.399Z,90.00
2023-04-29T23:32:39.700Z,90.10
2023-04-29T23:34:43.157Z,89.50
2023-04-29T23:36:46.516Z,89.20
2023-04-29T23:38:50.083Z,89.00
2023-04-29T23:40:54.941Z,89.60
2023-04-29T23:42:58.318Z,89.10
2023-04-29T23:45:01.796Z,89.10
2023-04-29T23:47:05.047Z,90.00
2023-04-29T23:49:08.375Z,90.20
2023-04-29T23:51:11.772Z,90.00
2023-04-29T23:53:15.887Z,89.60
2023-04-29T23:55:20.676Z,89.10
2023-04-29T23:57:25.413Z,89.90
2023-04-29T23:59:28.678Z,90.10
